Time;durP1;ratioP1;P1;durP2;ratioP2;P2;SDS_P1;SDS_P2;PMS_P1;PMS_P2;Temp;Humidity;BMP_temperature;BMP_pressure;BME280_temperature;BME280_humidity;BME280_pressure;Samples;Min_cycle;Max_cycle;Signal;HPM_P1;HPM_P2
2024/01/07 00:23:54;;;;;;;13.9;7.2;;;;;;;;;;;;;-78
2024/01/07 00:53:51;;;;;;;16.4;8.2;;;;;;;;;;;;;-79
2024/01/07 01:23:54;;;;;;;32.1;12.9;;;;;;;;;;;;;-78
2024/01/07 01:53:51;;;;;;;18.2;9.2;;;;;;;;;;;;;-78
2024/01/07 02:23:49;;;;;;;15;8.1;;;;;;;;;;;;;-77
2024/01/07 02:53:49;;;;;;;15.7;8;;;;;;;;;;;;;-80
2024/01/07 03:23:48;;;;;;;16;8.9;;;;;;;;;;;;;-79
2024/01/07 03:53:55;;;;;;;17.5;8.8;;;;;;;;;;;;;-79
2024/01/07 04:23:58;;;;;;;16.4;8.8;;;;;;;;;;;;;-78
2024/01/07 04:53:48;;;;;;;15.5;8.1;;;;;;;;;;;;;-79
2024/01/07 05:23:50;;;;;;;15.1;7.8;;;;;;;;;;;;;-78
2024/01/07 05:53:45;;;;;;;12.5;6.6;;;;;;;;;;;;;-79
2024/01/07 06:23:56;;;;;;;10.2;5.5;;;;;;;;;;;;;-78
2024/01/07 06:53:45;;;;;;;11.9;5.3;;;;;;;;;;;;;-78
2024/01/07 07:23:48;;;;;;;11.6;5.2;;;;;;;;;;;;;-81
2024/01/07 07:53:46;;;;;;;10.6;4.7;;;;;;;;;;;;;-79
2024/01/07 08:23:42;;;;;;;8.9;3.7;;;;;;;;;;;;;-79
2024/01/07 08:53:44;;;;;;;7.9;3.4;;;;;;;;;;;;;-79
2024/01/07 09:23:46;;;;;;;5.4;2.7;;;;;;;;;;;;;-78
2024/01/07 09:53:43;;;;;;;6.2;2.3;;;;;;;;;;;;;-79
2024/01/07 10:23:41;;;;;;;4.9;2.2;;;;;;;;;;;;;-78
2024/01/07 10:53:46;;;;;;;4.1;1.9;;;;;;;;;;;;;-78
2024/01/07 11:23:46;;;;;;;4;1.8;;;;;;;;;;;;;-79
2024/01/07 11:54:04;;;;;;;3.7;1.7;;;;;;;;;;;;;-79
2024/01/07 12:23:42;;;;;;;5.3;1.8;;;;;;;;;;;;;-79
2024/01/07 12:53:41;;;;;;;4.3;1.7;;;;;;;;;;;;;-79
2024/01/07 13:23:43;;;;;;;3.6;1.7;;;;;;;;;;;;;-78
2024/01/07 15:23:48;;;;;;;5.9;2.1;;;;;;;;;;;;;-79
2024/01/07 15:53:38;;;;;;;7.1;2.9;;;;;;;;;;;;;-79
2024/01/07 16:23:38;;;;;;;6.2;1.8;;;;;;;;;;;;;-79
2024/01/07 16:53:40;;;;;;;6.1;2.5;;;;;;;;;;;;;-83
2024/01/07 17:23:51;;;;;;;7.7;3.5;;;;;;;;;;;;;-85
2024/01/07 17:53:36;;;;;;;9.1;3.5;;;;;;;;;;;;;-84
2024/01/07 18:23:33;;;;;;;10.5;3.1;;;;;;;;;;;;;-83
2024/01/07 18:53:34;;;;;;;5.5;2.2;;;;;;;;;;;;;-84
2024/01/07 19:23:36;;;;;;;4.7;1.7;;;;;;;;;;;;;-83
2024/01/07 19:53:32;;;;;;;4.3;2;;;;;;;;;;;;;-82
2024/01/07 20:23:38;;;;;;;3.9;1.9;;;;;;;;;;;;;-83
2024/01/07 21:53:30;;;;;;;5.1;2.4;;;;;;;;;;;;;-83
2024/01/07 22:23:27;;;;;;;8.5;3.4;;;;;;;;;;;;;-84
2024/01/07 22:53:27;;;;;;;7.2;3.4;;;;;;;;;;;;;-83
2024/01/07 23:23:40;;;;;;;6.5;3.1;;;;;;;;;;;;;-84
2024/01/07 23:53:23;;;;;;;6.7;3;;;;;;;;;;;;;-83
